Time;durP1;ratioP1;P1;durP2;ratioP2;P2;SDS_P1;SDS_P2;PMS_P1;PMS_P2;Temp;Humidity;BMP_temperature;BMP_pressure;BME280_temperature;BME280_humidity;BME280_pressure;Samples;Min_cycle;Max_cycle;Signal;HPM_P1;HPM_P2
2021/09/16 00:04:15;;;;;;;8.07;7.32;;;;;;;;;;10324530;28;20071;-64
2021/09/16 00:09:14;;;;;;;11.52;7.68;;;;;;;;;;10324178;28;20076;-64
2021/09/16 00:14:13;;;;;;;11.10;6.93;;;;;;;;;;10323092;28;20055;-64
2021/09/16 00:19:11;;;;;;;10.00;7.85;;;;;;;;;;10323957;28;20052;-65
2021/09/16 00:24:09;;;;;;;6.93;6.22;;;;;;;;;;10323418;28;20099;-64
2021/09/16 00:29:10;;;;;;;9.80;6.95;;;;;;;;;;10322689;28;20528;-64
2021/09/16 00:34:08;;;;;;;10.50;6.55;;;;;;;;;;10323480;28;20052;-64
2021/09/16 00:39:06;;;;;;;9.02;7.05;;;;;;;;;;10321742;28;20057;-64
2021/09/16 00:44:05;;;;;;;11.05;7.07;;;;;;;;;;10322869;28;20464;-64
2021/09/16 00:49:06;;;;;;;9.68;6.75;;;;;;;;;;10322736;28;20052;-64
2021/09/16 00:54:06;;;;;;;9.35;6.97;;;;;;;;;;10321967;28;20056;-64
2021/09/16 00:59:05;;;;;;;9.07;6.88;;;;;;;;;;10322278;28;20048;-64
2021/09/16 01:04:05;;;;;;;8.07;7.13;;;;;;;;;;10322125;28;20077;-64
2021/09/16 01:09:03;;;;;;;7.55;6.75;;;;;;;;;;10321855;28;20055;-64
2021/09/16 01:14:01;;;;;;;10.27;7.22;;;;;;;;;;10321954;28;20052;-64
2021/09/16 01:19:00;;;;;;;8.52;7.03;;;;;;;;;;10321630;28;20040;-64
2021/09/16 01:23:59;;;;;;;13.40;7.18;;;;;;;;;;10321622;28;20375;-65
2021/09/16 01:28:58;;;;;;;7.85;7.05;;;;;;;;;;10321113;28;20044;-64
2021/09/16 01:33:56;;;;;;;11.35;6.97;;;;;;;;;;10320884;28;20041;-64
2021/09/16 01:38:54;;;;;;;8.80;6.93;;;;;;;;;;10320780;28;20485;-65
2021/09/16 01:43:54;;;;;;;10.43;6.80;;;;;;;;;;10320365;28;20103;-64
2021/09/16 01:48:52;;;;;;;9.80;6.28;;;;;;;;;;10320300;28;20055;-64
2021/09/16 01:53:51;;;;;;;7.47;6.78;;;;;;;;;;10319667;28;20091;-64
2021/09/16 01:58:49;;;;;;;7.95;7.10;;;;;;;;;;10319395;28;20048;-64
2021/09/16 02:03:49;;;;;;;7.72;6.63;;;;;;;;;;10319564;28;20076;-64
2021/09/16 02:08:47;;;;;;;8.77;7.20;;;;;;;;;;10319525;28;20051;-63
2021/09/16 02:13:46;;;;;;;8.57;7.20;;;;;;;;;;10318069;28;20677;-64
2021/09/16 02:18:44;;;;;;;9.85;7.65;;;;;;;;;;10319340;28;20044;-64
2021/09/16 02:23:44;;;;;;;8.93;7.00;;;;;;;;;;10318273;28;20082;-64
2021/09/16 02:28:42;;;;;;;10.68;6.93;;;;;;;;;;10318728;28;20048;-64
2021/09/16 02:33:41;;;;;;;10.13;7.25;;;;;;;;;;10318714;28;20043;-64
2021/09/16 02:38:39;;;;;;;9.55;7.57;;;;;;;;;;10318387;28;20064;-64
2021/09/16 02:43:40;;;;;;;9.55;7.63;;;;;;;;;;10322636;28;20061;-63
2021/09/16 02:48:38;;;;;;;9.50;6.50;;;;;;;;;;10353624;28;20045;-64
2021/09/16 02:53:36;;;;;;;8.93;8.00;;;;;;;;;;10317691;28;20048;-64
2021/09/16 02:58:35;;;;;;;12.40;7.25;;;;;;;;;;10316821;28;20076;-64
2021/09/16 03:03:34;;;;;;;12.43;7.88;;;;;;;;;;10317624;28;20478;-64
2021/09/16 03:08:33;;;;;;;8.77;7.60;;;;;;;;;;10316760;28;20477;-63
2021/09/16 03:13:31;;;;;;;10.73;6.97;;;;;;;;;;10336681;28;20053;-63
2021/09/16 03:18:29;;;;;;;9.68;7.78;;;;;;;;;;10349933;28;20068;-64
2021/09/16 03:23:29;;;;;;;9.05;7.25;;;;;;;;;;10319019;28;20056;-64
2021/09/16 03:28:27;;;;;;;11.40;8.10;;;;;;;;;;10317053;28;20076;-64
2021/09/16 03:33:26;;;;;;;9.23;8.07;;;;;;;;;;10316899;28;20071;-64
2021/09/16 03:38:24;;;;;;;8.85;8.05;;;;;;;;;;10316751;28;20044;-64
2021/09/16 03:43:24;;;;;;;12.15;7.78;;;;;;;;;;10317038;28;20076;-64
2021/09/16 03:48:22;;;;;;;11.73;9.82;;;;;;;;;;10316326;28;20087;-64
2021/09/16 03:53:20;;;;;;;15.70;14.02;;;;;;;;;;10315922;28;20055;-64
2021/09/16 03:58:19;;;;;;;12.27;11.15;;;;;;;;;;10316356;28;20045;-64
2021/09/16 04:03:18;;;;;;;10.27;8.82;;;;;;;;;;10316199;28;20051;-64
2021/09/16 04:08:17;;;;;;;10.32;9.00;;;;;;;;;;10316081;28;20080;-63
2021/09/16 04:13:15;;;;;;;9.13;8.23;;;;;;;;;;10315725;28;20048;-64
2021/09/16 04:18:13;;;;;;;13.13;9.48;;;;;;;;;;10315860;28;20045;-64
2021/09/16 04:23:13;;;;;;;15.70;13.30;;;;;;;;;;10320727;28;20048;-63
2021/09/16 04:28:11;;;;;;;11.55;8.80;;;;;;;;;;10323307;28;20402;-62
2021/09/16 04:33:10;;;;;;;14.55;7.18;;;;;;;;;;10321913;28;20059;-63
2021/09/16 04:38:08;;;;;;;10.02;8.23;;;;;;;;;;10318933;28;20083;-63
2021/09/16 04:43:08;;;;;;;12.40;8.32;;;;;;;;;;10319494;28;20072;-64
2021/09/16 04:48:06;;;;;;;16.67;12.25;;;;;;;;;;10321557;28;20060;-63
2021/09/16 04:53:05;;;;;;;16.95;12.88;;;;;;;;;;10317631;28;20508;-63
2021/09/16 04:58:03;;;;;;;15.82;9.45;;;;;;;;;;10318166;28;20083;-63
2021/09/16 05:03:03;;;;;;;9.93;8.15;;;;;;;;;;10318449;28;20076;-63
2021/09/16 05:08:01;;;;;;;16.23;10.52;;;;;;;;;;10321524;28;20044;-62
2021/09/16 05:13:00;;;;;;;10.95;8.18;;;;;;;;;;10320729;28;20078;-63
2021/09/16 05:17:58;;;;;;;10.88;8.05;;;;;;;;;;10321894;28;20052;-61
2021/09/16 05:22:58;;;;;;;11.43;8.40;;;;;;;;;;10321780;28;20048;-64
2021/09/16 05:27:56;;;;;;;16.58;8.27;;;;;;;;;;10319095;28;20083;-62
2021/09/16 05:32:54;;;;;;;16.83;9.63;;;;;;;;;;10318074;28;20051;-64
2021/09/16 05:37:54;;;;;;;10.05;8.45;;;;;;;;;;10319473;28;20068;-65
2021/09/16 05:42:54;;;;;;;10.32;8.30;;;;;;;;;;10341750;28;20044;-63
2021/09/16 05:47:52;;;;;;;12.85;8.55;;;;;;;;;;10326583;28;20049;-63
2021/09/16 05:52:51;;;;;;;10.40;7.97;;;;;;;;;;10311608;28;20072;-64
2021/09/16 05:57:49;;;;;;;12.65;7.70;;;;;;;;;;10314194;28;20088;-64
2021/09/16 06:02:49;;;;;;;11.05;8.88;;;;;;;;;;10319694;28;20052;-63
2021/09/16 06:07:47;;;;;;;12.52;8.02;;;;;;;;;;10319351;28;20079;-64
2021/09/16 06:12:45;;;;;;;11.27;7.82;;;;;;;;;;10299643;28;20517;-63
2021/09/16 06:17:44;;;;;;;12.95;8.13;;;;;;;;;;10289743;28;20075;-63
2021/09/16 06:22:46;;;;;;;12.65;7.97;;;;;;;;;;10287559;28;20453;-62
2021/09/16 06:27:45;;;;;;;17.30;8.45;;;;;;;;;;10275733;28;20084;-63
2021/09/16 06:32:45;;;;;;;13.45;8.13;;;;;;;;;;10277958;28;20037;-63
2021/09/16 06:37:44;;;;;;;9.50;7.95;;;;;;;;;;10277554;28;20068;-63
2021/09/16 06:42:43;;;;;;;9.05;7.03;;;;;;;;;;10277663;28;20049;-64
2021/09/16 06:47:41;;;;;;;10.52;8.77;;;;;;;;;;10276930;28;20088;-63
2021/09/16 06:52:40;;;;;;;14.30;8.15;;;;;;;;;;10276689;28;20083;-64
2021/09/16 06:57:39;;;;;;;30.85;9.48;;;;;;;;;;10276944;28;20147;-64
2021/09/16 07:02:38;;;;;;;32.67;10.55;;;;;;;;;;10276744;28;20072;-64
2021/09/16 07:07:36;;;;;;;29.45;10.27;;;;;;;;;;10276546;28;20515;-64
2021/09/16 07:12:36;;;;;;;21.98;8.90;;;;;;;;;;10276669;28;20037;-64
2021/09/16 07:17:35;;;;;;;11.68;7.65;;;;;;;;;;10276703;28;20178;-64
2021/09/16 07:22:34;;;;;;;10.65;7.60;;;;;;;;;;10276516;28;20079;-64
2021/09/16 07:27:33;;;;;;;7.90;6.22;;;;;;;;;;10275980;28;20548;-64
2021/09/16 07:32:31;;;;;;;9.93;6.65;;;;;;;;;;10275940;28;20041;-64
2021/09/16 07:37:31;;;;;;;6.95;6.25;;;;;;;;;;10275855;28;20075;-64
2021/09/16 07:42:30;;;;;;;8.98;7.13;;;;;;;;;;10275563;28;20056;-64
2021/09/16 07:47:28;;;;;;;26.50;8.32;;;;;;;;;;10275453;28;20073;-64
2021/09/16 07:52:27;;;;;;;16.65;7.60;;;;;;;;;;10275382;28;20053;-64
2021/09/16 07:57:27;;;;;;;14.95;8.32;;;;;;;;;;10279748;28;20414;-64
2021/09/16 08:02:25;;;;;;;12.75;8.00;;;;;;;;;;10283813;28;20041;-64
2021/09/16 08:07:23;;;;;;;17.02;8.02;;;;;;;;;;10282682;28;20084;-63
2021/09/16 08:12:22;;;;;;;17.45;9.32;;;;;;;;;;10283037;28;20064;-63
2021/09/16 08:17:21;;;;;;;19.63;9.82;;;;;;;;;;10282827;28;20057;-64
2021/09/16 08:22:20;;;;;;;15.20;8.32;;;;;;;;;;10282666;28;20490;-64
2021/09/16 08:27:18;;;;;;;26.48;9.35;;;;;;;;;;10282089;28;20075;-64
2021/09/16 08:32:18;;;;;;;17.83;8.70;;;;;;;;;;10282366;28;20041;-64
2021/09/16 08:37:18;;;;;;;14.55;8.82;;;;;;;;;;10282343;28;20041;-65
2021/09/16 08:42:16;;;;;;;17.83;9.32;;;;;;;;;;10281748;28;20513;-64
2021/09/16 08:47:15;;;;;;;11.77;8.63;;;;;;;;;;10281116;28;20081;-64
2021/09/16 08:52:13;;;;;;;12.27;7.80;;;;;;;;;;10281275;28;20504;-64
2021/09/16 08:57:15;;;;;;;13.07;7.95;;;;;;;;;;10283247;28;20052;-64
2021/09/16 09:02:14;;;;;;;9.25;6.75;;;;;;;;;;10286074;28;20053;-64
2021/09/16 09:07:19;;;;;;;11.52;7.45;;;;;;;;;;10277884;28;20045;-64
2021/09/16 09:12:19;;;;;;;11.73;6.88;;;;;;;;;;10280899;28;20497;-64
2021/09/16 09:17:18;;;;;;;10.48;6.47;;;;;;;;;;10280155;28;20045;-64
2021/09/16 09:22:16;;;;;;;7.82;7.03;;;;;;;;;;10280675;28;20044;-64
2021/09/16 09:27:23;;;;;;;9.40;6.70;;;;;;;;;;10282645;28;20052;-64
2021/09/16 09:32:23;;;;;;;17.60;6.97;;;;;;;;;;10280118;28;20085;-65
2021/09/16 09:37:21;;;;;;;9.35;7.28;;;;;;;;;;10280115;28;20064;-64
2021/09/16 09:42:21;;;;;;;8.60;6.10;;;;;;;;;;10279578;28;20040;-64
2021/09/16 09:52:43;;;;;;;11.50;7.00;;;;;;;;;;10352018;28;20393;-64
2021/09/16 09:57:42;;;;;;;13.57;7.03;;;;;;;;;;10351962;28;20441;-64
2021/09/16 10:02:45;;;;;;;11.50;8.02;;;;;;;;;;10352310;28;20052;-64
2021/09/16 10:07:45;;;;;;;15.15;7.95;;;;;;;;;;10352008;28;20513;-64
2021/09/16 10:12:44;;;;;;;14.10;9.05;;;;;;;;;;10351701;28;20074;-64
2021/09/16 10:17:43;;;;;;;13.98;9.40;;;;;;;;;;10351443;28;20512;-64
2021/09/16 10:22:42;;;;;;;17.15;9.35;;;;;;;;;;10350938;28;20084;-64
2021/09/16 10:27:42;;;;;;;11.00;9.00;;;;;;;;;;10351267;28;20043;-64
2021/09/16 10:32:41;;;;;;;9.82;8.75;;;;;;;;;;10350493;28;20528;-64
2021/09/16 10:37:39;;;;;;;14.00;9.20;;;;;;;;;;10350530;28;20047;-64
2021/09/16 10:42:49;;;;;;;18.52;7.90;;;;;;;;;;10350804;28;20084;-64
2021/09/16 10:47:47;;;;;;;11.82;8.10;;;;;;;;;;10349839;28;20071;-65
2021/09/16 10:52:46;;;;;;;16.27;8.07;;;;;;;;;;10349839;28;20070;-64
2021/09/16 10:57:44;;;;;;;12.77;8.10;;;;;;;;;;10349597;28;20051;-65
2021/09/16 11:03:16;;;;;;;18.15;8.63;;;;;;;;;;10329305;28;20048;-65
2021/09/16 11:08:18;;;;;;;15.65;8.38;;;;;;;;;;10322083;28;20080;-65
2021/09/16 11:13:30;;;;;;;10.90;7.85;;;;;;;;;;10321883;28;20079;-65
2021/09/16 11:18:28;;;;;;;12.00;7.03;;;;;;;;;;10321346;28;20129;-64
2021/09/16 11:23:34;;;;;;;16.75;8.13;;;;;;;;;;10321815;28;20166;-64
2021/09/16 11:28:33;;;;;;;12.18;6.20;;;;;;;;;;10321599;28;20048;-62
2021/09/16 11:33:31;;;;;;;13.77;10.73;;;;;;;;;;10321502;28;20040;-62
2021/09/16 11:38:30;;;;;;;11.52;7.03;;;;;;;;;;10321095;28;20087;-63
2021/09/16 11:43:29;;;;;;;15.60;7.07;;;;;;;;;;10320730;28;20056;-63
2021/09/16 11:48:28;;;;;;;11.00;7.45;;;;;;;;;;10319870;28;20048;-63
2021/09/16 11:53:28;;;;;;;11.93;7.93;;;;;;;;;;10320346;28;20068;-63
2021/09/16 11:58:29;;;;;;;10.43;7.97;;;;;;;;;;10319984;28;20037;-63
2021/09/16 12:03:29;;;;;;;14.05;8.38;;;;;;;;;;10319725;28;20048;-63
2021/09/16 12:08:29;;;;;;;16.48;8.77;;;;;;;;;;10319719;28;20048;-64
2021/09/16 12:13:28;;;;;;;13.85;9.55;;;;;;;;;;10318861;28;20083;-64
2021/09/16 12:18:26;;;;;;;13.10;9.40;;;;;;;;;;10319106;28;20489;-64
2021/09/16 12:23:26;;;;;;;19.95;10.63;;;;;;;;;;10319112;28;20540;-64
2021/09/16 12:28:25;;;;;;;13.20;10.55;;;;;;;;;;10318882;28;20430;-63
2021/09/16 12:33:31;;;;;;;12.18;10.98;;;;;;;;;;10318526;28;20076;-64
2021/09/16 12:38:38;;;;;;;15.18;12.65;;;;;;;;;;10318408;28;20433;-63
2021/09/16 12:43:39;;;;;;;15.50;12.27;;;;;;;;;;10321677;28;20051;-63
2021/09/16 12:48:42;;;;;;;14.35;12.05;;;;;;;;;;10325411;28;20049;-63
2021/09/16 12:53:43;;;;;;;17.08;11.07;;;;;;;;;;10318396;28;20473;-63
2021/09/16 12:58:42;;;;;;;23.05;12.77;;;;;;;;;;10317827;28;20039;-63
2021/09/16 13:03:40;;;;;;;14.45;10.40;;;;;;;;;;10317643;28;20036;-63
2021/09/16 13:08:39;;;;;;;14.73;11.48;;;;;;;;;;10317766;28;20052;-63
2021/09/16 13:13:39;;;;;;;18.70;10.32;;;;;;;;;;10323286;28;20041;-63
2021/09/16 13:18:38;;;;;;;12.95;10.75;;;;;;;;;;10317882;28;20040;-63
2021/09/16 13:23:36;;;;;;;15.52;10.85;;;;;;;;;;10316811;28;20056;-63
2021/09/16 13:28:34;;;;;;;11.68;9.70;;;;;;;;;;10316742;28;20401;-65
2021/09/16 13:33:35;;;;;;;15.55;9.80;;;;;;;;;;10316702;28;20078;-64
2021/09/16 13:38:33;;;;;;;13.70;10.00;;;;;;;;;;10317077;28;20044;-64
2021/09/16 13:43:32;;;;;;;12.18;8.88;;;;;;;;;;10316532;28;20047;-65
2021/09/16 13:48:30;;;;;;;11.05;9.57;;;;;;;;;;10316470;28;20059;-63
2021/09/16 13:53:30;;;;;;;14.80;9.10;;;;;;;;;;10316289;28;20130;-63
2021/09/16 13:58:28;;;;;;;13.45;8.75;;;;;;;;;;10316366;28;20048;-63
2021/09/16 14:03:26;;;;;;;18.67;10.73;;;;;;;;;;10316230;28;20049;-64
2021/09/16 14:08:25;;;;;;;15.25;10.93;;;;;;;;;;10315959;28;20033;-64
2021/09/16 14:13:25;;;;;;;14.13;12.30;;;;;;;;;;10315707;28;20076;-63
2021/09/16 14:18:23;;;;;;;33.80;19.67;;;;;;;;;;10316130;28;20080;-64
2021/09/16 14:23:22;;;;;;;24.77;14.82;;;;;;;;;;10315931;28;20052;-64
2021/09/16 14:28:20;;;;;;;21.95;13.48;;;;;;;;;;10315464;28;20052;-64
2021/09/16 14:33:21;;;;;;;16.73;12.55;;;;;;;;;;10315336;28;20076;-63
2021/09/16 14:38:19;;;;;;;14.52;10.15;;;;;;;;;;10321318;28;20413;-63
2021/09/16 14:43:18;;;;;;;9.45;8.45;;;;;;;;;;10322617;28;20047;-64
2021/09/16 14:48:16;;;;;;;14.23;9.63;;;;;;;;;;10322469;28;20053;-63
2021/09/16 14:53:17;;;;;;;14.18;9.25;;;;;;;;;;10322476;28;20079;-63
2021/09/16 14:58:15;;;;;;;9.85;8.82;;;;;;;;;;10322732;28;20049;-63
2021/09/16 15:03:13;;;;;;;16.95;10.10;;;;;;;;;;10321974;28;20049;-62
2021/09/16 15:08:12;;;;;;;13.32;10.55;;;;;;;;;;10322149;28;20493;-64
2021/09/16 15:13:12;;;;;;;18.27;10.07;;;;;;;;;;10321873;28;20076;-64
2021/09/16 15:18:10;;;;;;;16.90;11.25;;;;;;;;;;10321745;28;20457;-64
2021/09/16 15:23:10;;;;;;;16.52;13.38;;;;;;;;;;10321541;28;20049;-64
2021/09/16 15:28:08;;;;;;;13.85;11.07;;;;;;;;;;10321739;28;20485;-64
2021/09/16 15:33:08;;;;;;;15.95;10.70;;;;;;;;;;10320958;28;20496;-64
2021/09/16 15:38:07;;;;;;;17.13;11.15;;;;;;;;;;10321267;28;20186;-64
2021/09/16 15:43:05;;;;;;;15.43;11.50;;;;;;;;;;10321095;28;20047;-64
2021/09/16 15:48:04;;;;;;;16.55;11.65;;;;;;;;;;10320560;28;20198;-63
2021/09/16 15:53:03;;;;;;;14.77;10.50;;;;;;;;;;10320885;28;20079;-63
2021/09/16 15:58:02;;;;;;;16.95;12.52;;;;;;;;;;10320524;28;20044;-67
2021/09/16 16:03:00;;;;;;;15.27;12.40;;;;;;;;;;10319816;28;20040;-65
2021/09/16 16:08:00;;;;;;;18.50;11.75;;;;;;;;;;10319449;28;20084;-64
2021/09/16 16:12:59;;;;;;;16.50;11.52;;;;;;;;;;10319389;28;20095;-64
2021/09/16 16:17:58;;;;;;;18.45;12.05;;;;;;;;;;10319224;28;20048;-64
2021/09/16 16:22:56;;;;;;;14.55;11.85;;;;;;;;;;10319747;28;20044;-65
2021/09/16 16:27:54;;;;;;;24.40;15.73;;;;;;;;;;10319038;28;20044;-64
2021/09/16 16:32:54;;;;;;;18.17;14.80;;;;;;;;;;10342810;28;20052;-65
2021/09/16 16:37:52;;;;;;;25.73;12.23;;;;;;;;;;10347977;28;20489;-64
2021/09/16 16:42:51;;;;;;;20.23;15.40;;;;;;;;;;10318734;28;20516;-65
2021/09/16 16:47:49;;;;;;;17.38;13.88;;;;;;;;;;10317846;28;20056;-65
2021/09/16 16:52:49;;;;;;;18.33;16.48;;;;;;;;;;10317896;28;20139;-64
2021/09/16 16:57:47;;;;;;;18.08;16.17;;;;;;;;;;10317411;28;20079;-64
2021/09/16 17:02:45;;;;;;;25.85;23.33;;;;;;;;;;10353842;28;20032;-65
2021/09/16 17:07:44;;;;;;;18.17;12.07;;;;;;;;;;10317865;28;20049;-65
2021/09/16 17:12:44;;;;;;;26.83;14.65;;;;;;;;;;10317235;28;20075;-64
2021/09/16 17:17:42;;;;;;;21.25;13.55;;;;;;;;;;10317068;28;20501;-64
2021/09/16 17:22:40;;;;;;;21.27;13.18;;;;;;;;;;10317551;28;20520;-64
2021/09/16 17:27:39;;;;;;;20.08;12.40;;;;;;;;;;10316909;28;20051;-65
2021/09/16 17:32:39;;;;;;;24.83;14.85;;;;;;;;;;10316613;28;20075;-65
2021/09/16 17:37:37;;;;;;;22.65;13.57;;;;;;;;;;10317307;28;20051;-65
2021/09/16 17:42:36;;;;;;;14.40;11.50;;;;;;;;;;10316177;28;20080;-64
2021/09/16 17:47:35;;;;;;;16.40;9.10;;;;;;;;;;10316204;28;20048;-65
2021/09/16 17:52:35;;;;;;;19.52;10.77;;;;;;;;;;10315949;28;20084;-64
2021/09/16 17:57:34;;;;;;;10.35;8.90;;;;;;;;;;10317284;28;20041;-64
2021/09/16 18:02:32;;;;;;;11.90;8.82;;;;;;;;;;10317153;28;20485;-64
2021/09/16 18:07:32;;;;;;;10.88;7.53;;;;;;;;;;10317244;28;20045;-64
2021/09/16 18:12:32;;;;;;;14.95;8.48;;;;;;;;;;10321530;28;20082;-65
2021/09/16 18:17:31;;;;;;;12.07;8.80;;;;;;;;;;10324910;28;20044;-64
2021/09/16 18:22:29;;;;;;;12.00;9.18;;;;;;;;;;10324888;28;20464;-64
2021/09/16 18:27:28;;;;;;;12.10;8.82;;;;;;;;;;10324653;28;20041;-64
2021/09/16 18:32:27;;;;;;;15.90;8.38;;;;;;;;;;10324203;28;20080;-64
2021/09/16 18:37:26;;;;;;;6.97;6.28;;;;;;;;;;10322365;28;20044;-64
2021/09/16 18:42:24;;;;;;;16.60;7.65;;;;;;;;;;10323665;28;20076;-64
2021/09/16 18:47:22;;;;;;;7.30;6.60;;;;;;;;;;10322361;28;20051;-63
2021/09/16 18:52:22;;;;;;;7.60;6.82;;;;;;;;;;10322226;28;20088;-64
2021/09/16 18:57:21;;;;;;;12.95;6.32;;;;;;;;;;10323015;28;20045;-64
2021/09/16 19:02:19;;;;;;;9.35;6.07;;;;;;;;;;10321999;28;20059;-64
2021/09/16 19:07:18;;;;;;;11.40;6.60;;;;;;;;;;10322972;28;20049;-63
2021/09/16 19:12:20;;;;;;;12.77;7.07;;;;;;;;;;10322772;28;20092;-64
2021/09/16 19:17:27;;;;;;;7.88;6.50;;;;;;;;;;10322741;28;20075;-64
2021/09/16 19:22:28;;;;;;;12.10;6.95;;;;;;;;;;10322344;28;20064;-64
2021/09/16 19:27:33;;;;;;;10.93;7.10;;;;;;;;;;10322449;28;20052;-64
2021/09/16 19:32:31;;;;;;;9.70;6.20;;;;;;;;;;10320318;28;20055;-64
2021/09/16 19:37:32;;;;;;;9.75;6.80;;;;;;;;;;10322322;28;20068;-64
2021/09/16 19:42:34;;;;;;;13.15;6.57;;;;;;;;;;10322140;28;20390;-63
2021/09/16 19:47:33;;;;;;;13.98;6.47;;;;;;;;;;10321799;28;20044;-63
2021/09/16 19:52:31;;;;;;;10.23;6.43;;;;;;;;;;10320608;28;20092;-63
2021/09/16 19:57:32;;;;;;;10.60;6.30;;;;;;;;;;10321275;28;20040;-64
2021/09/16 20:02:30;;;;;;;6.72;6.10;;;;;;;;;;10321113;28;20076;-65
2021/09/16 20:07:30;;;;;;;17.25;9.07;;;;;;;;;;10320714;28;20048;-66
2021/09/16 20:12:28;;;;;;;21.17;9.77;;;;;;;;;;10320471;28;20084;-66
2021/09/16 20:17:28;;;;;;;12.57;9.23;;;;;;;;;;10319427;28;20045;-66
2021/09/16 20:22:26;;;;;;;16.10;9.65;;;;;;;;;;10320296;28;20041;-66
2021/09/16 20:27:25;;;;;;;20.23;9.52;;;;;;;;;;10327578;28;20052;-65
2021/09/16 20:32:23;;;;;;;13.57;9.15;;;;;;;;;;10359932;28;20029;-65
2021/09/16 20:37:25;;;;;;;13.82;8.35;;;;;;;;;;10324925;28;20052;-65
2021/09/16 20:42:23;;;;;;;13.95;9.10;;;;;;;;;;10319730;28;20036;-65
2021/09/16 20:47:22;;;;;;;10.85;9.40;;;;;;;;;;10318202;28;20041;-65
2021/09/16 20:52:20;;;;;;;15.63;9.20;;;;;;;;;;10318901;28;20532;-65
2021/09/16 20:57:20;;;;;;;9.07;8.25;;;;;;;;;;10332817;28;20056;-65
2021/09/16 21:02:18;;;;;;;9.82;8.80;;;;;;;;;;10338295;28;20044;-65
2021/09/16 21:07:17;;;;;;;10.00;9.00;;;;;;;;;;10318610;28;20048;-65
2021/09/16 21:12:15;;;;;;;11.90;8.52;;;;;;;;;;10318280;28;20048;-65
2021/09/16 21:17:15;;;;;;;14.63;8.35;;;;;;;;;;10318314;28;20037;-65
2021/09/16 21:22:13;;;;;;;12.82;8.27;;;;;;;;;;10317242;28;20288;-65
2021/09/16 21:27:12;;;;;;;11.57;8.68;;;;;;;;;;10317930;28;20051;-65
2021/09/16 21:32:10;;;;;;;11.80;7.75;;;;;;;;;;10317722;28;20064;-65
2021/09/16 21:37:10;;;;;;;12.65;7.93;;;;;;;;;;10316008;28;20044;-65
2021/09/16 21:42:08;;;;;;;13.77;6.72;;;;;;;;;;10316853;28;20048;-64
2021/09/16 21:47:07;;;;;;;11.18;7.38;;;;;;;;;;10317232;28;20044;-64
2021/09/16 21:52:05;;;;;;;9.40;7.18;;;;;;;;;;10316182;28;20414;-64
2021/09/16 21:57:06;;;;;;;8.77;6.85;;;;;;;;;;10317225;28;20079;-65
2021/09/16 22:02:04;;;;;;;8.63;6.47;;;;;;;;;;10317369;28;20087;-65
2021/09/16 22:07:03;;;;;;;9.18;6.80;;;;;;;;;;10316884;28;20076;-65
2021/09/16 22:12:02;;;;;;;8.50;7.03;;;;;;;;;;10317193;28;20040;-66
2021/09/16 22:17:01;;;;;;;10.38;7.10;;;;;;;;;;10316978;28;20079;-65
2021/09/16 22:22:01;;;;;;;8.30;7.32;;;;;;;;;;10316784;28;20629;-66
2021/09/16 22:27:00;;;;;;;7.53;6.70;;;;;;;;;;10316694;28;20044;-65
2021/09/16 22:31:58;;;;;;;12.43;7.50;;;;;;;;;;10316442;28;20063;-65
2021/09/16 22:36:59;;;;;;;11.95;7.50;;;;;;;;;;10316342;28;20072;-64
2021/09/16 22:41:57;;;;;;;11.25;6.80;;;;;;;;;;10315176;28;20036;-65
2021/09/16 22:46:55;;;;;;;10.38;7.38;;;;;;;;;;10316323;28;20044;-65
2021/09/16 22:51:54;;;;;;;12.18;7.80;;;;;;;;;;10315065;28;20468;-65
2021/09/16 22:56:53;;;;;;;10.98;7.15;;;;;;;;;;10317695;28;20079;-65
2021/09/16 23:01:52;;;;;;;10.63;6.82;;;;;;;;;;10323274;28;20549;-65
2021/09/16 23:06:51;;;;;;;10.13;6.65;;;;;;;;;;10322928;28;20061;-65
2021/09/16 23:11:50;;;;;;;7.38;6.32;;;;;;;;;;10322860;28;20063;-65
2021/09/16 23:16:51;;;;;;;8.55;6.80;;;;;;;;;;10322693;28;20497;-65
2021/09/16 23:21:51;;;;;;;6.88;6.07;;;;;;;;;;10322564;28;20053;-65
2021/09/16 23:26:49;;;;;;;9.02;6.85;;;;;;;;;;10322290;28;20049;-65
2021/09/16 23:31:47;;;;;;;11.00;6.20;;;;;;;;;;10322296;28;20043;-65
2021/09/16 23:36:47;;;;;;;14.55;6.40;;;;;;;;;;10321778;28;20072;-65
2021/09/16 23:41:45;;;;;;;8.27;6.43;;;;;;;;;;10321735;28;20049;-65
2021/09/16 23:46:44;;;;;;;11.10;6.90;;;;;;;;;;10321621;28;20048;-65
2021/09/16 23:51:42;;;;;;;6.65;5.65;;;;;;;;;;10320352;28;20445;-65
2021/09/16 23:56:42;;;;;;;7.70;6.95;;;;;;;;;;10321268;28;20080;-65
